Eureka の空港の天気 - METARとTAF

Eureka ( CWEU / ) - カナダ ヌナブト準州Eureka
飛行場実況気象(Metar)
観測時間08/13 22:00 CDT (08/14 03:00 UTC)
風向・風速西 6m/s
視程10km以上
天気現象
全天の8割程度の雲 雲底高度 2290m
全天の8割程度の雲 雲底高度 3960m
全天の8割程度の雲 雲底高度 5490m
全天の8割程度の雲 雲底高度 6400m
気温2℃
湿度81%
気圧1008.1hPa
METARCWEU 140300Z 26012KT 15SM BKN075 BKN130 BKN180 BKN210 02/M01 A2974 RMK AC5AC2AC1CI1 AC TR CI TR LAST STFD OBS/NEXT 140600Z SLP081
過去の天気等 Google飛行場航空写真 Wunderground天気予報

過去48時間のMETAR

飛行場予報(TAF)
データがありません